sensor_id;sensor_type;location;lat;lon;timestamp;pressure;altitude;pressure_sealevel;temperature;humidity
57568;BME280;43403;51.948;5.922;2022-07-29T00:01:00;101685.28;;;19.35;79.39
57568;BME280;43403;51.948;5.922;2022-07-29T00:03:27;101679.78;;;19.37;80.55
57568;BME280;43403;51.948;5.922;2022-07-29T00:05:53;101677.50;;;19.34;80.21
57568;BME280;43403;51.948;5.922;2022-07-29T00:08:20;101678.13;;;19.36;80.96
57568;BME280;43403;51.948;5.922;2022-07-29T00:10:46;101676.84;;;19.32;81.02
57568;BME280;43403;51.948;5.922;2022-07-29T00:13:13;101666.94;;;19.26;81.42
57568;BME280;43403;51.948;5.922;2022-07-29T00:15:39;101669.59;;;19.26;81.73
57568;BME280;43403;51.948;5.922;2022-07-29T00:18:06;101665.03;;;19.20;83.33
57568;BME280;43403;51.948;5.922;2022-07-29T00:20:32;101660.91;;;19.17;82.70
57568;BME280;43403;51.948;5.922;2022-07-29T00:22:59;101661.72;;;19.17;82.31
57568;BME280;43403;51.948;5.922;2022-07-29T00:25:25;101667.13;;;19.09;83.54
57568;BME280;43403;51.948;5.922;2022-07-29T00:27:51;101656.03;;;19.06;83.10
57568;BME280;43403;51.948;5.922;2022-07-29T00:30:18;101663.38;;;19.04;83.06
57568;BME280;43403;51.948;5.922;2022-07-29T00:32:44;101654.19;;;19.06;81.56
57568;BME280;43403;51.948;5.922;2022-07-29T00:35:11;101647.88;;;19.07;83.23
57568;BME280;43403;51.948;5.922;2022-07-29T00:37:59;101652.63;;;19.12;82.62
57568;BME280;43403;51.948;5.922;2022-07-29T00:40:27;101643.00;;;19.11;83.42
57568;BME280;43403;51.948;5.922;2022-07-29T00:42:53;101646.94;;;19.15;83.00
57568;BME280;43403;51.948;5.922;2022-07-29T00:45:20;101649.34;;;19.10;82.99
57568;BME280;43403;51.948;5.922;2022-07-29T00:47:48;101643.38;;;19.08;84.11
57568;BME280;43403;51.948;5.922;2022-07-29T00:50:14;101647.66;;;19.09;82.51
57568;BME280;43403;51.948;5.922;2022-07-29T00:52:42;101637.25;;;19.07;83.31
57568;BME280;43403;51.948;5.922;2022-07-29T00:55:11;101641.06;;;19.05;84.49
57568;BME280;43403;51.948;5.922;2022-07-29T00:57:38;101637.94;;;19.01;84.68
57568;BME280;43403;51.948;5.922;2022-07-29T01:00:08;101637.03;;;19.09;83.20
57568;BME280;43403;51.948;5.922;2022-07-29T01:02:35;101631.47;;;19.04;83.96
57568;BME280;43403;51.948;5.922;2022-07-29T01:05:03;101640.44;;;19.03;83.56
57568;BME280;43403;51.948;5.922;2022-07-29T01:07:35;101633.81;;;18.99;84.39
57568;BME280;43403;51.948;5.922;2022-07-29T01:10:04;101638.78;;;19.02;85.18
57568;BME280;43403;51.948;5.922;2022-07-29T01:12:32;101638.97;;;19.00;85.40
57568;BME280;43403;51.948;5.922;2022-07-29T01:15:01;101636.31;;;19.00;84.66
57568;BME280;43403;51.948;5.922;2022-07-29T01:28:44;101622.19;;;19.00;85.70
57568;BME280;43403;51.948;5.922;2022-07-29T01:31:18;101624.00;;;18.99;84.81
57568;BME280;43403;51.948;5.922;2022-07-29T01:33:58;101627.69;;;18.98;85.02
57568;BME280;43403;51.948;5.922;2022-07-29T01:39:31;101632.72;;;18.93;86.16
57568;BME280;43403;51.948;5.922;2022-07-29T01:42:27;101633.75;;;18.92;86.75
57568;BME280;43403;51.948;5.922;2022-07-29T01:45:12;101642.88;;;18.89;85.43
57568;BME280;43403;51.948;5.922;2022-07-29T01:47:44;101649.22;;;18.88;84.89
57568;BME280;43403;51.948;5.922;2022-07-29T01:50:16;101641.59;;;18.85;86.08
57568;BME280;43403;51.948;5.922;2022-07-29T01:52:47;101646.75;;;18.87;85.67
57568;BME280;43403;51.948;5.922;2022-07-29T01:55:17;101637.66;;;18.81;86.85
57568;BME280;43403;51.948;5.922;2022-07-29T01:57:47;101641.13;;;18.82;86.88
57568;BME280;43403;51.948;5.922;2022-07-29T02:00:15;101641.97;;;18.82;85.02
57568;BME280;43403;51.948;5.922;2022-07-29T02:02:44;101648.28;;;18.81;86.21
57568;BME280;43403;51.948;5.922;2022-07-29T02:05:14;101662.91;;;18.77;88.85
57568;BME280;43403;51.948;5.922;2022-07-29T02:07:43;101662.44;;;18.73;92.01
57568;BME280;43403;51.948;5.922;2022-07-29T02:10:12;101664.84;;;18.68;91.96
57568;BME280;43403;51.948;5.922;2022-07-29T02:12:40;101664.84;;;18.68;93.50
57568;BME280;43403;51.948;5.922;2022-07-29T02:15:16;101670.97;;;18.69;92.88
57568;BME280;43403;51.948;5.922;2022-07-29T02:17:53;101674.25;;;18.71;91.60
57568;BME280;43403;51.948;5.922;2022-07-29T02:20:22;101672.84;;;18.60;92.53
57568;BME280;43403;51.948;5.922;2022-07-29T02:22:52;101682.00;;;18.57;93.07
57568;BME280;43403;51.948;5.922;2022-07-29T02:25:21;101673.38;;;18.55;93.82
57568;BME280;43403;51.948;5.922;2022-07-29T02:27:50;101678.06;;;18.53;94.25
57568;BME280;43403;51.948;5.922;2022-07-29T02:30:19;101670.91;;;18.54;95.27
57568;BME280;43403;51.948;5.922;2022-07-29T02:32:48;101667.59;;;18.52;99.51
57568;BME280;43403;51.948;5.922;2022-07-29T02:35:16;101668.16;;;18.47;100.00
57568;BME280;43403;51.948;5.922;2022-07-29T02:37:44;101669.13;;;18.46;100.00
57568;BME280;43403;51.948;5.922;2022-07-29T02:40:12;101662.34;;;18.44;100.00
57568;BME280;43403;51.948;5.922;2022-07-29T02:42:42;101665.38;;;18.41;100.00
57568;BME280;43403;51.948;5.922;2022-07-29T02:45:10;101661.59;;;18.35;100.00
57568;BME280;43403;51.948;5.922;2022-07-29T02:47:42;101658.31;;;18.33;100.00
57568;BME280;43403;51.948;5.922;2022-07-29T02:50:16;101650.84;;;18.28;100.00
57568;BME280;43403;51.948;5.922;2022-07-29T02:52:45;101660.00;;;18.26;100.00
57568;BME280;43403;51.948;5.922;2022-07-29T02:55:22;101648.09;;;18.22;100.00
57568;BME280;43403;51.948;5.922;2022-07-29T02:57:57;101643.75;;;18.21;100.00
57568;BME280;43403;51.948;5.922;2022-07-29T03:00:28;101644.94;;;18.18;100.00
57568;BME280;43403;51.948;5.922;2022-07-29T03:02:58;101645.97;;;18.17;100.00
57568;BME280;43403;51.948;5.922;2022-07-29T03:05:26;101635.69;;;18.14;100.00
57568;BME280;43403;51.948;5.922;2022-07-29T03:07:58;101629.72;;;18.12;100.00
57568;BME280;43403;51.948;5.922;2022-07-29T03:10:27;101625.94;;;18.06;100.00
57568;BME280;43403;51.948;5.922;2022-07-29T03:12:55;101615.31;;;18.06;100.00
57568;BME280;43403;51.948;5.922;2022-07-29T03:15:22;101612.38;;;18.01;100.00
57568;BME280;43403;51.948;5.922;2022-07-29T03:17:50;101608.63;;;17.95;100.00
57568;BME280;43403;51.948;5.922;2022-07-29T03:20:17;101601.00;;;17.92;100.00
57568;BME280;43403;51.948;5.922;2022-07-29T03:22:44;101591.03;;;17.94;100.00
57568;BME280;43403;51.948;5.922;2022-07-29T03:25:14;101592.53;;;17.89;100.00
57568;BME280;43403;51.948;5.922;2022-07-29T03:27:42;101585.94;;;17.85;100.00
57568;BME280;43403;51.948;5.922;2022-07-29T03:30:09;101584.78;;;17.79;100.00
57568;BME280;43403;51.948;5.922;2022-07-29T03:32:36;101581.00;;;17.73;100.00
57568;BME280;43403;51.948;5.922;2022-07-29T03:35:05;101580.06;;;17.66;100.00
57568;BME280;43403;51.948;5.922;2022-07-29T03:37:32;101595.00;;;17.59;100.00
57568;BME280;43403;51.948;5.922;2022-07-29T03:40:02;101588.69;;;17.60;100.00
57568;BME280;43403;51.948;5.922;2022-07-29T03:42:31;101587.91;;;17.51;100.00
57568;BME280;43403;51.948;5.922;2022-07-29T03:45:02;101585.97;;;17.45;100.00
57568;BME280;43403;51.948;5.922;2022-07-29T03:47:29;101570.75;;;17.39;100.00
57568;BME280;43403;51.948;5.922;2022-07-29T03:50:17;101567.94;;;17.32;100.00
57568;BME280;43403;51.948;5.922;2022-07-29T03:52:45;101570.31;;;17.27;100.00
57568;BME280;43403;51.948;5.922;2022-07-29T03:55:13;101565.50;;;17.23;100.00
57568;BME280;43403;51.948;5.922;2022-07-29T03:57:40;101564.84;;;17.20;100.00
57568;BME280;43403;51.948;5.922;2022-07-29T04:00:08;101573.81;;;17.19;100.00
57568;BME280;43403;51.948;5.922;2022-07-29T04:02:36;101569.00;;;17.15;100.00
57568;BME280;43403;51.948;5.922;2022-07-29T04:05:02;101568.19;;;17.14;100.00
57568;BME280;43403;51.948;5.922;2022-07-29T04:07:29;101560.41;;;17.13;100.00
57568;BME280;43403;51.948;5.922;2022-07-29T04:09:55;101565.69;;;17.13;100.00
57568;BME280;43403;51.948;5.922;2022-07-29T04:12:22;101559.94;;;17.09;100.00
57568;BME280;43403;51.948;5.922;2022-07-29T04:14:49;101567.03;;;17.09;100.00
57568;BME280;43403;51.948;5.922;2022-07-29T04:17:16;101577.34;;;17.04;100.00
57568;BME280;43403;51.948;5.922;2022-07-29T04:19:43;101589.44;;;17.06;100.00
57568;BME280;43403;51.948;5.922;2022-07-29T04:22:09;101597.53;;;17.05;100.00
57568;BME280;43403;51.948;5.922;2022-07-29T04:24:35;101614.94;;;16.99;100.00
57568;BME280;43403;51.948;5.922;2022-07-29T04:27:02;101619.44;;;16.98;100.00
57568;BME280;43403;51.948;5.922;2022-07-29T04:29:28;101614.16;;;16.90;100.00
57568;BME280;43403;51.948;5.922;2022-07-29T04:31:55;101615.13;;;16.81;100.00
57568;BME280;43403;51.948;5.922;2022-07-29T04:34:21;101606.88;;;16.84;100.00
57568;BME280;43403;51.948;5.922;2022-07-29T04:36:53;101610.31;;;16.93;100.00
57568;BME280;43403;51.948;5.922;2022-07-29T04:39:19;101597.25;;;16.91;100.00
57568;BME280;43403;51.948;5.922;2022-07-29T04:41:48;101600.38;;;16.95;100.00
57568;BME280;43403;51.948;5.922;2022-07-29T04:44:17;101600.22;;;16.96;100.00
57568;BME280;43403;51.948;5.922;2022-07-29T04:46:44;101604.03;;;16.94;100.00
57568;BME280;43403;51.948;5.922;2022-07-29T04:49:11;101600.22;;;16.96;100.00
57568;BME280;43403;51.948;5.922;2022-07-29T04:51:38;101604.22;;;16.92;100.00
57568;BME280;43403;51.948;5.922;2022-07-29T04:54:04;101609.00;;;16.80;100.00
57568;BME280;43403;51.948;5.922;2022-07-29T04:56:32;101603.38;;;16.75;100.00
57568;BME280;43403;51.948;5.922;2022-07-29T04:58:58;101601.22;;;16.79;100.00
57568;BME280;43403;51.948;5.922;2022-07-29T05:01:25;101593.44;;;16.77;100.00
57568;BME280;43403;51.948;5.922;2022-07-29T05:03:51;101610.34;;;16.76;100.00
57568;BME280;43403;51.948;5.922;2022-07-29T05:06:25;101604.22;;;16.76;100.00
57568;BME280;43403;51.948;5.922;2022-07-29T05:08:51;101613.66;;;16.70;100.00
57568;BME280;43403;51.948;5.922;2022-07-29T05:11:17;101604.69;;;16.71;100.00
57568;BME280;43403;51.948;5.922;2022-07-29T05:13:48;101610.66;;;16.73;100.00
57568;BME280;43403;51.948;5.922;2022-07-29T05:16:15;101614.97;;;16.74;100.00
57568;BME280;43403;51.948;5.922;2022-07-29T05:18:41;101614.63;;;16.77;100.00
57568;BME280;43403;51.948;5.922;2022-07-29T05:21:08;101635.66;;;16.79;100.00
57568;BME280;43403;51.948;5.922;2022-07-29T05:23:34;101648.75;;;16.72;100.00
57568;BME280;43403;51.948;5.922;2022-07-29T05:26:01;101644.63;;;16.78;100.00
57568;BME280;43403;51.948;5.922;2022-07-29T05:28:27;101655.38;;;16.76;100.00
57568;BME280;43403;51.948;5.922;2022-07-29T05:30:54;101652.56;;;16.78;100.00
57568;BME280;43403;51.948;5.922;2022-07-29T05:33:20;101652.22;;;16.81;100.00
57568;BME280;43403;51.948;5.922;2022-07-29T05:36:03;101646.91;;;16.81;100.00
57568;BME280;43403;51.948;5.922;2022-07-29T05:38:31;101645.28;;;16.80;100.00
57568;BME280;43403;51.948;5.922;2022-07-29T05:40:58;101653.22;;;16.80;100.00
57568;BME280;43403;51.948;5.922;2022-07-29T05:43:29;101650.41;;;16.82;100.00
57568;BME280;43403;51.948;5.922;2022-07-29T05:45:55;101645.78;;;16.84;100.00
57568;BME280;43403;51.948;5.922;2022-07-29T05:48:22;101642.28;;;16.91;100.00
57568;BME280;43403;51.948;5.922;2022-07-29T05:50:49;101645.59;;;16.93;100.00
57568;BME280;43403;51.948;5.922;2022-07-29T05:53:15;101651.56;;;16.95;100.00
57568;BME280;43403;51.948;5.922;2022-07-29T05:55:45;101654.38;;;17.02;100.00
57568;BME280;43403;51.948;5.922;2022-07-29T05:58:12;101652.06;;;17.07;100.00
57568;BME280;43403;51.948;5.922;2022-07-29T06:00:38;101649.72;;;17.12;100.00
57568;BME280;43403;51.948;5.922;2022-07-29T06:03:04;101655.66;;;17.14;100.00
57568;BME280;43403;51.948;5.922;2022-07-29T06:05:31;101646.53;;;17.17;100.00
57568;BME280;43403;51.948;5.922;2022-07-29T06:07:57;101656.50;;;17.23;100.00
57568;BME280;43403;51.948;5.922;2022-07-29T06:10:24;101658.09;;;17.32;100.00
57568;BME280;43403;51.948;5.922;2022-07-29T06:12:52;101647.31;;;17.34;100.00
57568;BME280;43403;51.948;5.922;2022-07-29T06:15:18;101644.84;;;17.41;100.00
57568;BME280;43403;51.948;5.922;2022-07-29T06:17:45;101640.84;;;17.45;100.00
57568;BME280;43403;51.948;5.922;2022-07-29T06:20:30;101637.53;;;17.43;100.00
57568;BME280;43403;51.948;5.922;2022-07-29T06:22:58;101639.34;;;17.42;100.00
57568;BME280;43403;51.948;5.922;2022-07-29T06:25:26;101643.28;;;17.46;100.00
57568;BME280;43403;51.948;5.922;2022-07-29T06:27:53;101651.25;;;17.46;100.00
57568;BME280;43403;51.948;5.922;2022-07-29T06:30:20;101646.94;;;17.53;100.00
57568;BME280;43403;51.948;5.922;2022-07-29T06:32:46;101643.09;;;17.56;100.00
57568;BME280;43403;51.948;5.922;2022-07-29T06:35:13;101651.38;;;17.61;100.00
57568;BME280;43403;51.948;5.922;2022-07-29T06:37:59;101636.59;;;17.67;100.00
57568;BME280;43403;51.948;5.922;2022-07-29T06:40:26;101634.22;;;17.72;100.00
57568;BME280;43403;51.948;5.922;2022-07-29T06:43:11;101635.84;;;17.81;100.00
57568;BME280;43403;51.948;5.922;2022-07-29T06:45:38;101635.50;;;17.92;100.00
57568;BME280;43403;51.948;5.922;2022-07-29T06:48:07;101643.56;;;17.99;100.00
57568;BME280;43403;51.948;5.922;2022-07-29T06:50:34;101641.22;;;18.04;100.00
57568;BME280;43403;51.948;5.922;2022-07-29T06:53:00;101632.94;;;18.07;100.00
57568;BME280;43403;51.948;5.922;2022-07-29T06:55:27;101640.13;;;18.22;100.00
57568;BME280;43403;51.948;5.922;2022-07-29T06:57:53;101637.41;;;18.30;100.00
57568;BME280;43403;51.948;5.922;2022-07-29T07:00:20;101636.84;;;18.34;100.00
57568;BME280;43403;51.948;5.922;2022-07-29T07:02:46;101644.41;;;18.46;100.00
57568;BME280;43403;51.948;5.922;2022-07-29T07:05:13;101629.13;;;18.48;100.00
57568;BME280;43403;51.948;5.922;2022-07-29T07:07:39;101636.75;;;18.51;100.00
57568;BME280;43403;51.948;5.922;2022-07-29T07:10:06;101636.84;;;18.57;100.00
57568;BME280;43403;51.948;5.922;2022-07-29T07:12:32;101638.50;;;18.58;100.00
57568;BME280;43403;51.948;5.922;2022-07-29T07:14:59;101634.66;;;18.61;100.00
57568;BME280;43403;51.948;5.922;2022-07-29T07:17:25;101634.31;;;18.64;100.00
57568;BME280;43403;51.948;5.922;2022-07-29T07:19:51;101641.91;;;18.67;100.00
57568;BME280;43403;51.948;5.922;2022-07-29T07:22:18;101646.56;;;18.65;100.00
57568;BME280;43403;51.948;5.922;2022-07-29T07:24:44;101645.38;;;18.68;100.00
57568;BME280;43403;51.948;5.922;2022-07-29T07:27:11;101644.84;;;18.72;100.00
57568;BME280;43403;51.948;5.922;2022-07-29T07:29:37;101638.91;;;18.70;100.00
57568;BME280;43403;51.948;5.922;2022-07-29T07:32:09;101641.72;;;18.69;100.00
57568;BME280;43403;51.948;5.922;2022-07-29T07:34:36;101639.88;;;18.69;100.00
57568;BME280;43403;51.948;5.922;2022-07-29T07:37:04;101644.84;;;18.72;100.00
57568;BME280;43403;51.948;5.922;2022-07-29T07:39:31;101637.53;;;18.74;100.00
57568;BME280;43403;51.948;5.922;2022-07-29T07:41:58;101640.72;;;18.70;100.00
57568;BME280;43403;51.948;5.922;2022-07-29T07:44:24;101649.69;;;18.69;100.00
57568;BME280;43403;51.948;5.922;2022-07-29T07:46:51;101657.69;;;18.69;100.00
57568;BME280;43403;51.948;5.922;2022-07-29T07:49:18;101646.50;;;18.73;100.00
57568;BME280;43403;51.948;5.922;2022-07-29T07:51:44;101658.25;;;18.79;100.00
57568;BME280;43403;51.948;5.922;2022-07-29T07:54:16;101657.75;;;18.84;100.00
57568;BME280;43403;51.948;5.922;2022-07-29T07:56:45;101656.63;;;18.93;100.00
57568;BME280;43403;51.948;5.922;2022-07-29T07:59:18;101647.28;;;18.97;100.00
57568;BME280;43403;51.948;5.922;2022-07-29T08:01:44;101646.38;;;19.05;100.00
57568;BME280;43403;51.948;5.922;2022-07-29T08:04:20;101644.66;;;19.12;100.00
57568;BME280;43403;51.948;5.922;2022-07-29T08:06:53;101647.97;;;19.14;100.00
57568;BME280;43403;51.948;5.922;2022-07-29T08:09:24;101646.03;;;19.23;100.00
57568;BME280;43403;51.948;5.922;2022-07-29T08:11:57;101653.47;;;19.27;100.00
57568;BME280;43403;51.948;5.922;2022-07-29T08:14:25;101643.28;;;19.31;100.00
57568;BME280;43403;51.948;5.922;2022-07-29T08:16:51;101648.69;;;19.38;100.00
57568;BME280;43403;51.948;5.922;2022-07-29T08:19:18;101644.19;;;19.38;100.00
57568;BME280;43403;51.948;5.922;2022-07-29T08:21:44;101642.44;;;19.45;100.00
57568;BME280;43403;51.948;5.922;2022-07-29T08:24:11;101646.22;;;19.51;100.00
57568;BME280;43403;51.948;5.922;2022-07-29T08:26:56;101644.44;;;19.58;100.00
57568;BME280;43403;51.948;5.922;2022-07-29T08:29:22;101647.38;;;19.63;100.00
57568;BME280;43403;51.948;5.922;2022-07-29T08:31:49;101646.81;;;19.68;100.00
57568;BME280;43403;51.948;5.922;2022-07-29T08:34:16;101648.47;;;19.69;100.00
57568;BME280;43403;51.948;5.922;2022-07-29T08:36:42;101652.97;;;19.68;100.00
57568;BME280;43403;51.948;5.922;2022-07-29T08:39:12;101656.13;;;19.72;100.00
57568;BME280;43403;51.948;5.922;2022-07-29T08:41:38;101662.09;;;19.74;100.00
57568;BME280;43403;51.948;5.922;2022-07-29T08:44:05;101666.38;;;19.75;100.00
57568;BME280;43403;51.948;5.922;2022-07-29T08:46:31;101673.25;;;19.69;100.00
57568;BME280;43403;51.948;5.922;2022-07-29T08:48:58;101663.53;;;19.77;100.00
57568;BME280;43403;51.948;5.922;2022-07-29T08:51:25;101673.25;;;19.84;100.00
57568;BME280;43403;51.948;5.922;2022-07-29T08:53:51;101673.44;;;19.83;100.00
57568;BME280;43403;51.948;5.922;2022-07-29T08:56:20;101677.19;;;19.88;100.00
57568;BME280;43403;51.948;5.922;2022-07-29T08:58:47;101675.00;;;19.92;100.00
57568;BME280;43403;51.948;5.922;2022-07-29T09:01:21;101673.78;;;19.94;100.00
57568;BME280;43403;51.948;5.922;2022-07-29T09:04:03;101686.47;;;19.92;100.00
57568;BME280;43403;51.948;5.922;2022-07-29T09:06:32;101684.25;;;19.96;100.00
57568;BME280;43403;51.948;5.922;2022-07-29T09:09:01;101692.88;;;19.98;100.00
57568;BME280;43403;51.948;5.922;2022-07-29T09:11:27;101691.66;;;20.01;100.00
57568;BME280;43403;51.948;5.922;2022-07-29T09:13:54;101691.75;;;20.07;100.00
57568;BME280;43403;51.948;5.922;2022-07-29T09:16:21;101691.53;;;20.09;100.00
57568;BME280;43403;51.948;5.922;2022-07-29T09:19:26;101683.56;;;20.09;100.00
57568;BME280;43403;51.948;5.922;2022-07-29T09:21:53;101684.59;;;20.08;100.00
57568;BME280;43403;51.948;5.922;2022-07-29T09:24:45;101681.09;;;20.07;100.00
57568;BME280;43403;51.948;5.922;2022-07-29T09:27:23;101672.25;;;20.07;100.00
57568;BME280;43403;51.948;5.922;2022-07-29T09:29:56;101668.59;;;20.08;100.00
57568;BME280;43403;51.948;5.922;2022-07-29T09:32:23;101672.09;;;20.08;100.00
57568;BME280;43403;51.948;5.922;2022-07-29T09:34:50;101668.59;;;20.08;100.00
57568;BME280;43403;51.948;5.922;2022-07-29T09:37:28;101678.03;;;20.10;100.00
57568;BME280;43403;51.948;5.922;2022-07-29T09:39:55;101678.63;;;20.06;100.00
57568;BME280;43403;51.948;5.922;2022-07-29T09:42:29;101676.78;;;20.06;100.00
57568;BME280;43403;51.948;5.922;2022-07-29T09:44:56;101687.88;;;20.10;100.00
57568;BME280;43403;51.948;5.922;2022-07-29T09:47:41;101690.81;;;20.15;100.00
57568;BME280;43403;51.948;5.922;2022-07-29T09:50:07;101687.41;;;20.21;100.00
57568;BME280;43403;51.948;5.922;2022-07-29T09:52:44;101687.44;;;20.28;100.00
57568;BME280;43403;51.948;5.922;2022-07-29T09:55:11;101685.69;;;20.35;100.00
57568;BME280;43403;51.948;5.922;2022-07-29T09:57:43;101687.72;;;20.54;100.00
57568;BME280;43403;51.948;5.922;2022-07-29T10:00:13;101684.22;;;20.76;100.00
57568;BME280;43403;51.948;5.922;2022-07-29T10:02:42;101683.81;;;21.07;100.00
57568;BME280;43403;51.948;5.922;2022-07-29T10:05:26;101682.78;;;21.36;100.00
57568;BME280;43403;51.948;5.922;2022-07-29T10:08:02;101678.22;;;21.65;97.21
57568;BME280;43403;51.948;5.922;2022-07-29T10:10:31;101675.44;;;21.86;94.64
57568;BME280;43403;51.948;5.922;2022-07-29T10:13:08;101679.88;;;22.27;96.71
57568;BME280;43403;51.948;5.922;2022-07-29T10:15:43;101676.19;;;22.55;92.12
57568;BME280;43403;51.948;5.922;2022-07-29T10:18:12;101678.44;;;22.71;89.09
57568;BME280;43403;51.948;5.922;2022-07-29T10:20:40;101680.91;;;22.93;87.12
57568;BME280;43403;51.948;5.922;2022-07-29T10:23:10;101675.94;;;23.30;87.31
57568;BME280;43403;51.948;5.922;2022-07-29T10:25:45;101674.19;;;23.62;86.33
57568;BME280;43403;51.948;5.922;2022-07-29T10:28:14;101670.66;;;24.07;84.34
57568;BME280;43403;51.948;5.922;2022-07-29T10:30:43;101660.16;;;24.37;80.35
57568;BME280;43403;51.948;5.922;2022-07-29T10:35:51;101670.13;;;25.05;79.13
57568;BME280;43403;51.948;5.922;2022-07-29T10:44:18;101672.41;;;25.27;78.76
57568;BME280;43403;51.948;5.922;2022-07-29T10:46:49;101676.28;;;25.31;75.94
57568;BME280;43403;51.948;5.922;2022-07-29T10:49:21;101676.06;;;25.33;76.77
57568;BME280;43403;51.948;5.922;2022-07-29T10:52:07;101667.63;;;25.29;74.02
57568;BME280;43403;51.948;5.922;2022-07-29T10:59:40;101675.47;;;25.05;73.94
57568;BME280;43403;51.948;5.922;2022-07-29T11:05:15;101676.06;;;25.08;74.18
57568;BME280;43403;51.948;5.922;2022-07-29T11:10:46;101679.47;;;25.58;74.67
57568;BME280;43403;51.948;5.922;2022-07-29T11:16:09;101675.59;;;25.84;72.37
57568;BME280;43403;51.948;5.922;2022-07-29T11:19:30;101671.16;;;26.20;69.81
57568;BME280;43403;51.948;5.922;2022-07-29T11:21:56;101674.63;;;26.51;67.25
57568;BME280;43403;51.948;5.922;2022-07-29T11:24:31;101665.88;;;26.79;69.18
57568;BME280;43403;51.948;5.922;2022-07-29T11:27:10;101668.31;;;27.05;68.56
57568;BME280;43403;51.948;5.922;2022-07-29T11:29:50;101661.31;;;27.03;66.30
57568;BME280;43403;51.948;5.922;2022-07-29T11:32:19;101666.78;;;27.32;66.86
57568;BME280;43403;51.948;5.922;2022-07-29T11:34:50;101658.66;;;27.44;66.13
57568;BME280;43403;51.948;5.922;2022-07-29T11:46:49;101649.22;;;27.99;64.30
57568;BME280;43403;51.948;5.922;2022-07-29T11:49:25;101656.47;;;27.98;64.72
57568;BME280;43403;51.948;5.922;2022-07-29T11:51:58;101648.31;;;28.10;64.71
57568;BME280;43403;51.948;5.922;2022-07-29T11:54:33;101651.63;;;27.84;65.80
57568;BME280;43403;51.948;5.922;2022-07-29T11:57:20;101651.34;;;27.85;66.49
57568;BME280;43403;51.948;5.922;2022-07-29T11:59:47;101657.50;;;27.80;66.44
57568;BME280;43403;51.948;5.922;2022-07-29T12:02:14;101646.03;;;27.73;65.15
57568;BME280;43403;51.948;5.922;2022-07-29T12:05:01;101645.16;;;27.56;66.83
57568;BME280;43403;51.948;5.922;2022-07-29T12:07:37;101647.28;;;27.54;67.16
57568;BME280;43403;51.948;5.922;2022-07-29T12:10:12;101657.25;;;27.53;67.33
57568;BME280;43403;51.948;5.922;2022-07-29T12:12:55;101650.47;;;27.51;68.10
57568;BME280;43403;51.948;5.922;2022-07-29T12:15:21;101652.59;;;27.49;68.09
57568;BME280;43403;51.948;5.922;2022-07-29T12:18:12;101649.69;;;27.67;67.96
57568;BME280;43403;51.948;5.922;2022-07-29T12:20:39;101656.00;;;27.73;67.48
57568;BME280;43403;51.948;5.922;2022-07-29T12:23:07;101654.06;;;27.85;67.03
57568;BME280;43403;51.948;5.922;2022-07-29T12:25:35;101636.91;;;28.03;64.70
57568;BME280;43403;51.948;5.922;2022-07-29T12:28:05;101645.09;;;28.25;65.38
57568;BME280;43403;51.948;5.922;2022-07-29T12:30:36;101645.66;;;28.61;64.88
57568;BME280;43403;51.948;5.922;2022-07-29T12:33:15;101637.47;;;28.56;60.68
57568;BME280;43403;51.948;5.922;2022-07-29T12:35:51;101639.69;;;28.98;63.92
57568;BME280;43403;51.948;5.922;2022-07-29T12:38:33;101638.16;;;29.24;61.28
57568;BME280;43403;51.948;5.922;2022-07-29T12:41:01;101640.78;;;29.41;59.49
57568;BME280;43403;51.948;5.922;2022-07-29T12:43:30;101636.75;;;29.71;59.06
57568;BME280;43403;51.948;5.922;2022-07-29T12:45:57;101641.03;;;29.89;59.41
57568;BME280;43403;51.948;5.922;2022-07-29T12:51:02;101641.69;;;30.33;57.59
57568;BME280;43403;51.948;5.922;2022-07-29T12:53:29;101629.72;;;30.29;55.92
57568;BME280;43403;51.948;5.922;2022-07-29T12:55:58;101636.66;;;30.47;55.16
57568;BME280;43403;51.948;5.922;2022-07-29T12:58:41;101634.50;;;30.49;53.75
57568;BME280;43403;51.948;5.922;2022-07-29T13:01:18;101633.25;;;30.67;55.49
57568;BME280;43403;51.948;5.922;2022-07-29T13:03:54;101635.50;;;30.81;53.80
57568;BME280;43403;51.948;5.922;2022-07-29T13:06:44;101631.19;;;30.85;53.49
57568;BME280;43403;51.948;5.922;2022-07-29T13:09:17;101626.25;;;30.77;50.23
57568;BME280;43403;51.948;5.922;2022-07-29T13:11:45;101624.56;;;30.60;51.16
57568;BME280;43403;51.948;5.922;2022-07-29T13:22:14;101622.31;;;30.89;53.08
57568;BME280;43403;51.948;5.922;2022-07-29T13:24:54;101621.88;;;31.18;52.47
57568;BME280;43403;51.948;5.922;2022-07-29T13:27:23;101625.94;;;31.16;50.75
57568;BME280;43403;51.948;5.922;2022-07-29T13:29:51;101624.34;;;31.25;52.42
57568;BME280;43403;51.948;5.922;2022-07-29T13:32:19;101626.53;;;31.38;53.46
57568;BME280;43403;51.948;5.922;2022-07-29T13:34:55;101621.19;;;31.48;53.55
57568;BME280;43403;51.948;5.922;2022-07-29T13:37:21;101617.69;;;31.58;53.39
57568;BME280;43403;51.948;5.922;2022-07-29T13:39:48;101621.94;;;31.44;52.27
57568;BME280;43403;51.948;5.922;2022-07-29T13:42:18;101617.94;;;31.62;53.46
57568;BME280;43403;51.948;5.922;2022-07-29T13:44:45;101614.41;;;31.61;52.31
57568;BME280;43403;51.948;5.922;2022-07-29T13:47:11;101621.47;;;31.83;55.43
57568;BME280;43403;51.948;5.922;2022-07-29T13:49:38;101614.16;;;31.73;52.38
57568;BME280;43403;51.948;5.922;2022-07-29T13:52:05;101609.72;;;31.31;50.87
57568;BME280;43403;51.948;5.922;2022-07-29T13:54:33;101610.59;;;31.57;53.01
57568;BME280;43403;51.948;5.922;2022-07-29T13:57:07;101603.59;;;31.82;52.47